• Join FlightAware (Why Join?)
  • Login
  • US Flag 
11:20PM EDT


 

Airport Tracker/Info


-or-


 

Live Flight TrackerFlight Track Log ✈ DAL858 ✈ 01-Oct-2013 ✈ KATL - KJAX

Flight Track Log - Related Links

Times and Time Zones

All times are in EDT time to prevent confusion due to time zone crossing. See the DAL858 flight status page for this flight to view local times or setup timezone preferences in your user account.

Time Position Orientation Groundspeed Altitude Reporting Facility
EDT Latitude Longitude Course Direction KTS MPH feet Rate Location/Type
03:16PM 33.6333 -84.5000 146° Southeast 200 230 3,200  Level Atlanta TRACON
03:17PM 33.6167 -84.5833 257° West 277 319 6,500 3,240 Climbing Atlanta TRACON
03:18PM 33.5614 -84.6022 196° South 285 328 9,700 1,800 Climbing Atlanta Center
03:19PM 33.2804 -84.1048 145° Southeast  Level Estimated
03:19PM 33.4694 -84.5867 172° South 341 392 10,000  Level Atlanta Center
03:20PM 33.1874 -84.0309 146° Southeast  Level FlightAware Approximate
03:20PM 33.4072 -84.5092 134° Southeast 364 419 11,300  Level Atlanta Center
03:21PM 33.0944 -83.9571 146° Southeast  Level FlightAware Approximate
03:21PM 33.3386 -84.3994 127° Southeast 394 453 13,800  Level Atlanta Center
03:22PM 33.2722 -84.2847 125° Southeast 415 478 16,000 2,040 Climbing Atlanta Center
03:23PM 33.2014 -84.1703 126° Southeast 420 483 17,900 1,920 Climbing Atlanta Center
03:24PM 33.1283 -84.0489 126° Southeast 439 505 19,900 1,920 Climbing Atlanta Center
03:25PM 33.0322 -83.9322 134° Southeast 439 505 21,800 1,680 Climbing Atlanta Center
03:26PM 32.9278 -83.8433 144° Southeast 452 520 23,300 1,080 Climbing Atlanta Center
03:27PM 32.8169 -83.7569 147° Southeast 463 533 24,000 300 Climbing Atlanta Center
03:28PM 32.7083 -83.6636 144° Southeast 474 545 24,000  Level Atlanta Center
03:29PM 32.6078 -83.5653 141° Southeast 479 551 24,000  Level Atlanta Center
03:30PM 32.5050 -83.4625 140° Southeast 479 551 24,000  Level Atlanta Center
03:32PM 32.2933 -83.2489 140° Southeast 502 578 24,000  Level Jacksonville Center
03:33PM 32.1914 -83.1503 141° Southeast 496 571 24,000  Level Jacksonville Center
03:34PM 32.0872 -83.0469 140° Southeast 491 565 24,000  Level Jacksonville Center
03:35PM 31.9850 -82.9464 140° Southeast 491 565 24,000 -60 Level Jacksonville Center
03:36PM 31.8825 -82.8461 140° Southeast 491 565 23,900 -480 Descending Jacksonville Center
03:37PM 31.7822 -82.7458 140° Southeast 486 559 23,100 -840 Descending Jacksonville Center
03:38PM 31.6819 -82.6483 140° Southeast 481 554 22,300 -900 Descending Jacksonville Center
03:39PM 31.5814 -82.5561 142° Southeast 467 537 21,400 -840 Descending Jacksonville Center
03:40PM 31.4728 -82.4761 148° Southeast 467 537 20,700 -660 Descending Jacksonville Center
03:41PM 31.3514 -82.3986 151° Southeast 462 532 20,100 -1,680 Descending Jacksonville Center
03:42PM 31.2425 -82.3653 165° South 453 521 17,400 -2,940 Descending Jacksonville Center
03:43PM 31.1797 -82.3292 154° Southeast 437 503 15,900 -2,520 Descending Jacksonville Center
03:43PM 31.1317 -82.3100 161° South 441 507 14,900 -2,400 Descending Jacksonville Center
03:44PM 31.0542 -82.2694 156° South 416 479 13,000 -2,400 Descending Jacksonville Center
03:44PM 31.0269 -82.2575 159° South 425 489 12,500 -1,020 Descending Jacksonville Center
03:45PM 30.9494 -82.2022 149° Southeast 399 459 12,000 -600 Descending Jacksonville Center
03:45PM 30.9328 -82.1903 148° Southeast 408 470 11,900 -540 Descending Jacksonville Center
03:46PM 30.8675 -82.1278 141° Southeast 366 421 11,500 -540 Descending Jacksonville Center
03:46PM 30.8508 -82.1231 166° South 388 447 11,400 -1,500 Descending Jacksonville Center
03:47PM 30.7964 -82.0753 143° Southeast 290 334 10,000 -1,800 Descending Jacksonville Center
03:47PM 30.7817 -82.0656 150° Southeast 346 398 9,600 -1,920 Descending Jacksonville Center
03:48PM 30.7292 -82.0200 143° Southeast 292 336 8,100 -1,800 Descending Jacksonville Center
03:48PM 30.7167 -82.0106 147° Southeast 310 357 7,800 -1,800 Descending Jacksonville Center
03:49PM 30.6703 -81.9700 143° Southeast 282 325 6,500 -1,740 Descending Jacksonville Center
03:49PM 30.6514 -81.9556 147° Southeast 295 339 6,100 -1,380 Descending Jacksonville Center
03:50PM 30.5925 -81.9056 144° Southeast 284 327 4,800 -1,320 Descending Jacksonville Center
03:50PM 30.5883 -81.9056 180° South 285 328 4,800 -1,020 Level Jacksonville Center
03:51PM 30.5358 -81.8603 143° Southeast 227 261 3,800 -1,140 Descending Jacksonville Center
03:51PM 30.5339 -81.8603 180° South 262 302 3,700 -1,080 Descending Jacksonville Center
03:52PM 30.4833 -81.8175 144° Southeast 190 219 2,600 -1,200 Descending Jacksonville Center
03:53PM 30.4725 -81.7767 107° East 159 183 1,500 -1,080 Descending Jacksonville Center
03:54PM 30.4847 -81.7356 71° East 133 153 700 -900 Descending Jacksonville Center